Time;durP1;ratioP1;P1;durP2;ratioP2;P2;SDS_P1;SDS_P2;PMS_P1;PMS_P2;Temp;Humidity;BMP_temperature;BMP_pressure;BME280_temperature;BME280_humidity;BME280_pressure;Samples;Min_cycle;Max_cycle;Signal;HPM_P1;HPM_P2
2021/05/08 00:01:51;;;;;;;;;;;;;;;;;;4977072;28;19914;-55
2021/05/08 00:04:16;;;;;;;;;;;;;;;;;;4980871;28;20370;-58
2021/05/08 00:06:41;;;;;;;;;;;;;;;;;;4987512;28;19921;-56
2021/05/08 00:09:07;;;;;;;;;;;;;;;;;;4977733;28;19945;-57
2021/05/08 00:11:32;;;;;;;;;;;;;;;;;;4979513;28;19917;-57
2021/05/08 00:13:57;;;;;;;;;;;;;;;;;;4981901;28;19913;-56
2021/05/08 00:16:22;;;;;;;;;;;;;;;;;;4983680;28;19913;-57
2021/05/08 00:18:47;;;;;;;;;;;;;;;;;;4981399;28;19921;-56
2021/05/08 00:21:13;;;;;;;;;;;;;;;;;;4985484;28;19929;-56
2021/05/08 00:23:38;;;;;;;;;;;;;;;;;;4978840;28;20008;-57
2021/05/08 00:26:04;;;;;;;;;;;;;;;;;;4984783;28;19910;-57
2021/05/08 00:28:29;;;;;;;;;;;;;;;;;;4978807;28;20450;-54
2021/05/08 00:30:54;;;;;;;;;;;;;;;;;;4977056;28;20278;-56
2021/05/08 00:33:19;;;;;;;;;;;;;;;;;;4976688;28;20365;-58
2021/05/08 00:35:45;;;;;;;;;;;;;;;;;;4976711;28;19932;-55
2021/05/08 00:38:10;;;;;;;;;;;;;;;;;;4976285;28;19910;-55
2021/05/08 00:40:35;;;;;;;;;;;;;;;;;;4975156;28;19910;-55
2021/05/08 00:43:00;;;;;;;;;;;;;;;;;;4976697;28;20390;-56
2021/05/08 00:45:26;;;;;;;;;;;;;;;;;;4959077;28;19988;-57
2021/05/08 00:47:52;;;;;;;;;;;;;;;;;;4975266;28;19909;-57
2021/05/08 00:50:17;;;;;;;;;;;;;;;;;;4957936;28;20430;-57
2021/05/08 00:52:43;;;;;;;;;;;;;;;;;;4976343;28;19910;-57
2021/05/08 00:55:08;;;;;;;;;;;;;;;;;;4974683;28;19914;-57
2021/05/08 00:57:33;;;;;;;;;;;;;;;;;;4958866;28;20408;-57
2021/05/08 00:59:59;;;;;;;;;;;;;;;;;;4974722;28;19910;-56
2021/05/08 01:02:24;;;;;;;;;;;;;;;;;;4974187;28;19992;-55
2021/05/08 01:04:49;;;;;;;;;;;;;;;;;;4958934;28;19922;-54
2021/05/08 01:07:14;;;;;;;;;;;;;;;;;;4974369;28;19910;-59
2021/05/08 01:09:40;;;;;;;;;;;;;;;;;;4974552;28;19914;-57
2021/05/08 01:12:05;;;;;;;;;;;;;;;;;;4974461;28;19965;-57
2021/05/08 01:14:30;;;;;;;;;;;;;;;;;;4974439;28;19926;-55
2021/05/08 01:16:55;;;;;;;;;;;;;;;;;;4974451;28;20278;-54
2021/05/08 01:19:21;;;;;;;;;;;;;;;;;;4958355;28;20318;-54
2021/05/08 01:21:46;;;;;;;;;;;;;;;;;;4974261;28;20400;-55
2021/05/08 01:24:11;;;;;;;;;;;;;;;;;;4974131;28;19917;-57
2021/05/08 01:26:37;;;;;;;;;;;;;;;;;;4958307;28;19995;-55
2021/05/08 01:29:02;;;;;;;;;;;;;;;;;;4974567;28;19968;-57
2021/05/08 01:31:27;;;;;;;;;;;;;;;;;;4973943;28;19906;-58
2021/05/08 01:33:52;;;;;;;;;;;;;;;;;;4975270;28;20334;-54
2021/05/08 01:36:18;;;;;;;;;;;;;;;;;;4974780;28;20365;-57
2021/05/08 01:38:44;;;;;;;;;;;;;;;;;;4974048;28;19957;-57
2021/05/08 01:41:11;;;;;;;;;;;;;;;;;;4975103;28;19918;-57
2021/05/08 01:43:37;;;;;;;;;;;;;;;;;;4973854;28;20381;-56
2021/05/08 01:46:03;;;;;;;;;;;;;;;;;;4974220;28;19906;-56
2021/05/08 01:48:28;;;;;;;;;;;;;;;;;;4973511;28;20374;-55
2021/05/08 01:50:54;;;;;;;;;;;;;;;;;;4973332;28;19918;-54
2021/05/08 01:53:20;;;;;;;;;;;;;;;;;;4973448;28;20365;-57
2021/05/08 01:55:46;;;;;;;;;;;;;;;;;;4974999;28;19978;-56
2021/05/08 01:58:17;;;;;;;;;;;;;;;;;;4974499;28;19952;-54
2021/05/08 02:00:47;;;;;;;;;;;;;;;;;;4974914;28;19910;-57
2021/05/08 02:03:12;;;;;;;;;;;;;;;;;;4973307;28;19913;-54
2021/05/08 02:05:38;;;;;;;;;;;;;;;;;;4975022;28;20020;-56
2021/05/08 02:08:08;;;;;;;;;;;;;;;;;;4959496;28;19910;-55
2021/05/08 02:10:33;;;;;;;;;;;;;;;;;;4977027;28;20008;-56
2021/05/08 02:12:58;;;;;;;;;;;;;;;;;;4981802;28;19922;-57
2021/05/08 02:15:23;;;;;;;;;;;;;;;;;;4977280;28;19917;-56
2021/05/08 02:17:48;;;;;;;;;;;;;;;;;;4973673;28;19910;-58
2021/05/08 02:20:14;;;;;;;;;;;;;;;;;;4958228;28;19910;-58
2021/05/08 02:22:39;;;;;;;;;;;;;;;;;;4974560;28;19968;-57
2021/05/08 02:25:05;;;;;;;;;;;;;;;;;;4973862;28;19917;-56
2021/05/08 02:27:30;;;;;;;;;;;;;;;;;;4957588;28;19968;-57
2021/05/08 02:29:55;;;;;;;;;;;;;;;;;;4973341;28;19910;-55
2021/05/08 02:32:21;;;;;;;;;;;;;;;;;;4974122;28;19906;-54
2021/05/08 02:34:46;;;;;;;;;;;;;;;;;;4973801;28;20362;-56
2021/05/08 02:37:11;;;;;;;;;;;;;;;;;;4974462;28;19941;-56
2021/05/08 02:39:36;;;;;;;;;;;;;;;;;;4956929;28;19917;-56
2021/05/08 02:42:02;;;;;;;;;;;;;;;;;;4973573;28;19914;-52
2021/05/08 02:44:27;;;;;;;;;;;;;;;;;;4974584;28;19914;-56
2021/05/08 02:46:53;;;;;;;;;;;;;;;;;;4957243;28;20323;-57
2021/05/08 02:49:18;;;;;;;;;;;;;;;;;;4974125;28;19929;-55
2021/05/08 02:51:43;;;;;;;;;;;;;;;;;;4956572;28;20346;-55
2021/05/08 02:54:09;;;;;;;;;;;;;;;;;;4973854;28;19989;-57
2021/05/08 02:56:34;;;;;;;;;;;;;;;;;;4956909;28;20383;-53
2021/05/08 02:58:59;;;;;;;;;;;;;;;;;;4973036;28;20246;-56
2021/05/08 03:01:25;;;;;;;;;;;;;;;;;;4972820;28;20363;-57
2021/05/08 03:03:50;;;;;;;;;;;;;;;;;;4974456;28;19913;-57
2021/05/08 03:06:15;;;;;;;;;;;;;;;;;;4972824;28;19961;-57
2021/05/08 03:08:43;;;;;;;;;;;;;;;;;;4972724;28;19910;-58
2021/05/08 03:11:12;;;;;;;;;;;;;;;;;;4972904;28;19910;-58
2021/05/08 03:13:38;;;;;;;;;;;;;;;;;;4973915;28;20401;-57
2021/05/08 03:16:03;;;;;;;;;;;;;;;;;;4960748;28;20223;-56
2021/05/08 03:18:28;;;;;;;;;;;;;;;;;;4976472;28;19914;-58
2021/05/08 03:20:54;;;;;;;;;;;;;;;;;;4976129;28;19956;-62
2021/05/08 03:23:19;;;;;;;;;;;;;;;;;;4978218;28;19976;-56
2021/05/08 03:25:45;;;;;;;;;;;;;;;;;;4977625;28;19921;-57
2021/05/08 03:28:11;;;;;;;;;;;;;;;;;;4976198;28;19910;-57
2021/05/08 03:30:38;;;;;;;;;;;;;;;;;;4962054;28;19913;-56
2021/05/08 03:33:06;;;;;;;;;;;;;;;;;;4979207;28;20000;-56
2021/05/08 03:35:31;;;;;;;;;;;;;;;;;;4978296;28;20004;-56
2021/05/08 03:37:57;;;;;;;;;;;;;;;;;;4978386;28;19910;-55
2021/05/08 03:40:22;;;;;;;;;;;;;;;;;;4976758;28;20052;-60
2021/05/08 03:42:47;;;;;;;;;;;;;;;;;;4961833;28;19922;-54
2021/05/08 03:45:12;;;;;;;;;;;;;;;;;;4977603;28;19968;-56
2021/05/08 03:47:38;;;;;;;;;;;;;;;;;;4977581;28;19945;-56
2021/05/08 03:50:03;;;;;;;;;;;;;;;;;;4960863;28;19918;-56
2021/05/08 03:52:28;;;;;;;;;;;;;;;;;;4977307;28;19921;-57
2021/05/08 03:54:53;;;;;;;;;;;;;;;;;;4976171;28;20424;-56
2021/05/08 03:57:18;;;;;;;;;;;;;;;;;;4975903;28;20291;-56
2021/05/08 03:59:44;;;;;;;;;;;;;;;;;;4959653;28;20355;-55
2021/05/08 04:02:09;;;;;;;;;;;;;;;;;;4977690;28;20338;-59
2021/05/08 04:04:34;;;;;;;;;;;;;;;;;;4959915;28;19914;-58
2021/05/08 04:06:59;;;;;;;;;;;;;;;;;;4976941;28;20338;-56
2021/05/08 04:09:25;;;;;;;;;;;;;;;;;;4977160;28;20366;-56
2021/05/08 04:11:50;;;;;;;;;;;;;;;;;;4976568;28;19913;-54
2021/05/08 04:14:15;;;;;;;;;;;;;;;;;;4976835;28;19910;-55
2021/05/08 04:16:40;;;;;;;;;;;;;;;;;;4975071;28;20270;-56
2021/05/08 04:19:06;;;;;;;;;;;;;;;;;;4976343;28;19960;-59
2021/05/08 04:21:31;;;;;;;;;;;;;;;;;;4975088;28;19906;-57
2021/05/08 04:23:56;;;;;;;;;;;;;;;;;;4959205;28;19921;-56
2021/05/08 04:26:21;;;;;;;;;;;;;;;;;;4975937;28;19965;-57
2021/05/08 04:28:47;;;;;;;;;;;;;;;;;;4974900;28;20274;-56
2021/05/08 04:31:12;;;;;;;;;;;;;;;;;;4976474;28;19910;-57
2021/05/08 04:33:37;;;;;;;;;;;;;;;;;;4958896;28;20263;-57
2021/05/08 04:36:02;;;;;;;;;;;;;;;;;;4976890;28;19918;-57
2021/05/08 04:38:28;;;;;;;;;;;;;;;;;;4976467;28;19910;-55
2021/05/08 04:40:53;;;;;;;;;;;;;;;;;;4976172;28;19913;-57
2021/05/08 04:43:18;;;;;;;;;;;;;;;;;;4974791;28;20024;-56
2021/05/08 04:45:43;;;;;;;;;;;;;;;;;;4976114;28;20282;-56
2021/05/08 04:48:09;;;;;;;;;;;;;;;;;;4976216;28;19910;-57
2021/05/08 04:50:34;;;;;;;;;;;;;;;;;;4974551;28;20315;-56
2021/05/08 04:52:59;;;;;;;;;;;;;;;;;;4976777;28;19917;-61
2021/05/08 04:55:24;;;;;;;;;;;;;;;;;;4976802;28;19910;-57
2021/05/08 04:57:50;;;;;;;;;;;;;;;;;;4975787;28;19917;-58
2021/05/08 05:00:15;;;;;;;;;;;;;;;;;;4975991;28;19968;-57
2021/05/08 05:02:40;;;;;;;;;;;;;;;;;;4975641;28;20270;-57
2021/05/08 05:05:05;;;;;;;;;;;;;;;;;;4975879;28;19952;-57
2021/05/08 05:07:31;;;;;;;;;;;;;;;;;;4974700;28;20037;-56
2021/05/08 05:09:57;;;;;;;;;;;;;;;;;;4975638;28;19930;-56
2021/05/08 05:12:22;;;;;;;;;;;;;;;;;;4974354;28;19975;-56
2021/05/08 05:14:48;;;;;;;;;;;;;;;;;;4975349;28;20394;-58
2021/05/08 05:17:13;;;;;;;;;;;;;;;;;;4975560;28;20306;-56
2021/05/08 05:19:38;;;;;;;;;;;;;;;;;;4975404;28;20436;-59
2021/05/08 05:22:03;;;;;;;;;;;;;;;;;;4975464;28;19968;-57
2021/05/08 05:24:29;;;;;;;;;;;;;;;;;;4974321;28;19953;-57
2021/05/08 05:26:54;;;;;;;;;;;;;;;;;;4975278;28;19918;-57
2021/05/08 05:29:19;;;;;;;;;;;;;;;;;;4974062;28;19917;-56
2021/05/08 05:31:44;;;;;;;;;;;;;;;;;;4974188;28;20339;-57
2021/05/08 05:34:10;;;;;;;;;;;;;;;;;;4975152;28;19917;-58
2021/05/08 05:36:35;;;;;;;;;;;;;;;;;;4973133;28;20246;-59
2021/05/08 05:39:00;;;;;;;;;;;;;;;;;;4971462;28;19968;-57
2021/05/08 05:41:25;;;;;;;;;;;;;;;;;;4973819;28;19907;-56
2021/05/08 05:43:51;;;;;;;;;;;;;;;;;;4974030;28;20000;-58
2021/05/08 05:46:16;;;;;;;;;;;;;;;;;;4956485;28;20053;-57
2021/05/08 05:48:41;;;;;;;;;;;;;;;;;;4971906;28;19960;-56
2021/05/08 05:51:08;;;;;;;;;;;;;;;;;;4972740;28;20000;-58
2021/05/08 05:53:33;;;;;;;;;;;;;;;;;;4973791;28;19985;-57
2021/05/08 05:55:58;;;;;;;;;;;;;;;;;;4973492;28;19957;-58
2021/05/08 05:58:31;;;;;;;;;;;;;;;;;;5090682;28;19970;-58
2021/05/08 06:00:56;;;;;;;;;;;;;;;;;;5090271;28;19970;-58
2021/05/08 06:03:22;;;;;;;;;;;;;;;;;;5090197;28;20367;-57
2021/05/08 06:05:47;;;;;;;;;;;;;;;;;;5089790;28;20445;-58
2021/05/08 06:08:13;;;;;;;;;;;;;;;;;;5088769;28;20375;-57
2021/05/08 06:10:38;;;;;;;;;;;;;;;;;;5090000;28;20340;-63
2021/05/08 06:13:03;;;;;;;;;;;;;;;;;;5089457;28;19969;-59
2021/05/08 06:15:29;;;;;;;;;;;;;;;;;;5090057;28;19912;-57
2021/05/08 06:17:54;;;;;;;;;;;;;;;;;;5089639;28;19952;-57
2021/05/08 06:20:19;;;;;;;;;;;;;;;;;;5072175;28;19928;-57
2021/05/08 06:22:44;;;;;;;;;;;;;;;;;;5089465;28;20419;-56
2021/05/08 06:25:10;;;;;;;;;;;;;;;;;;5088464;28;20300;-58
2021/05/08 06:27:35;;;;;;;;;;;;;;;;;;5071561;28;19912;-58
2021/05/08 06:30:00;;;;;;;;;;;;;;;;;;5089411;28;19965;-56
2021/05/08 06:32:25;;;;;;;;;;;;;;;;;;5089386;28;20000;-58
2021/05/08 06:34:51;;;;;;;;;;;;;;;;;;5089230;28;19912;-58
2021/05/08 06:37:16;;;;;;;;;;;;;;;;;;5089940;28;19920;-59
2021/05/08 06:39:41;;;;;;;;;;;;;;;;;;5089345;28;19916;-58
2021/05/08 06:42:06;;;;;;;;;;;;;;;;;;5089183;28;19912;-57
2021/05/08 06:44:32;;;;;;;;;;;;;;;;;;5089165;28;20277;-57
2021/05/08 06:46:57;;;;;;;;;;;;;;;;;;5089031;28;19934;-55
2021/05/08 06:49:22;;;;;;;;;;;;;;;;;;5087975;28;19916;-55
2021/05/08 06:51:47;;;;;;;;;;;;;;;;;;5070878;28;19913;-59
2021/05/08 06:54:13;;;;;;;;;;;;;;;;;;5089331;28;19965;-57
2021/05/08 06:56:38;;;;;;;;;;;;;;;;;;5087545;28;19993;-57
2021/05/08 06:59:03;;;;;;;;;;;;;;;;;;5070579;28;19912;-57
2021/05/08 07:01:29;;;;;;;;;;;;;;;;;;5089254;28;19924;-58
2021/05/08 07:03:54;;;;;;;;;;;;;;;;;;5087609;28;20387;-57
2021/05/08 07:06:19;;;;;;;;;;;;;;;;;;5089219;28;20360;-57
2021/05/08 07:08:44;;;;;;;;;;;;;;;;;;5080674;28;19965;-57
2021/05/08 07:11:10;;;;;;;;;;;;;;;;;;5074283;28;19944;-57
2021/05/08 07:13:35;;;;;;;;;;;;;;;;;;5075713;28;19963;-57
2021/05/08 07:16:00;;;;;;;;;;;;;;;;;;5074861;28;19913;-57
2021/05/08 07:18:25;;;;;;;;;;;;;;;;;;5075700;28;19920;-55
2021/05/08 07:20:51;;;;;;;;;;;;;;;;;;5075296;28;19915;-57
2021/05/08 07:23:16;;;;;;;;;;;;;;;;;;5074188;28;20018;-57
2021/05/08 07:25:41;;;;;;;;;;;;;;;;;;5074980;28;19919;-57
2021/05/08 07:28:07;;;;;;;;;;;;;;;;;;5076024;28;19959;-57
2021/05/08 07:30:32;;;;;;;;;;;;;;;;;;5074378;28;19912;-59
2021/05/08 07:32:58;;;;;;;;;;;;;;;;;;5075212;28;20390;-57
2021/05/08 07:35:23;;;;;;;;;;;;;;;;;;5074925;28;19913;-59
2021/05/08 07:37:48;;;;;;;;;;;;;;;;;;5074715;28;19916;-58
2021/05/08 07:40:13;;;;;;;;;;;;;;;;;;5075018;28;20356;-62
2021/05/08 07:42:39;;;;;;;;;;;;;;;;;;5073854;28;19912;-58
2021/05/08 07:45:04;;;;;;;;;;;;;;;;;;5074500;28;19913;-57
2021/05/08 07:47:29;;;;;;;;;;;;;;;;;;5073732;28;20360;-56
2021/05/08 07:49:54;;;;;;;;;;;;;;;;;;5074467;28;20292;-58
2021/05/08 07:52:20;;;;;;;;;;;;;;;;;;5073504;28;19912;-58
2021/05/08 07:54:45;;;;;;;;;;;;;;;;;;5074673;28;19912;-57
2021/05/08 07:57:10;;;;;;;;;;;;;;;;;;5073980;28;20398;-58
2021/05/08 07:59:36;;;;;;;;;;;;;;;;;;5073458;28;19919;-57
2021/05/08 08:02:02;;;;;;;;;;;;;;;;;;5072908;28;20413;-57
2021/05/08 08:04:27;;;;;;;;;;;;;;;;;;5074482;28;19912;-61
2021/05/08 08:06:52;;;;;;;;;;;;;;;;;;5073424;28;19927;-57
2021/05/08 08:09:17;;;;;;;;;;;;;;;;;;5074128;28;19915;-57
2021/05/08 08:11:43;;;;;;;;;;;;;;;;;;5073686;28;19935;-56
2021/05/08 08:14:08;;;;;;;;;;;;;;;;;;5074280;28;19912;-58
2021/05/08 08:16:33;;;;;;;;;;;;;;;;;;5073183;28;20331;-58
2021/05/08 08:19:00;;;;;;;;;;;;;;;;;;5073783;28;20003;-59
2021/05/08 08:21:25;;;;;;;;;;;;;;;;;;5072153;28;19913;-57
2021/05/08 08:23:51;;;;;;;;;;;;;;;;;;5073381;28;19919;-57
2021/05/08 08:26:16;;;;;;;;;;;;;;;;;;5073116;28;20066;-58
2021/05/08 08:28:41;;;;;;;;;;;;;;;;;;5073993;28;20281;-58
2021/05/08 08:31:07;;;;;;;;;;;;;;;;;;5075040;28;19912;-59
2021/05/08 08:33:32;;;;;;;;;;;;;;;;;;5074558;28;20279;-58
2021/05/08 08:35:57;;;;;;;;;;;;;;;;;;5074093;28;19920;-57
2021/05/08 08:38:22;;;;;;;;;;;;;;;;;;5072272;28;20346;-56
2021/05/08 08:40:48;;;;;;;;;;;;;;;;;;5074664;28;19920;-58
2021/05/08 08:43:13;;;;;;;;;;;;;;;;;;5075074;28;20336;-57
2021/05/08 08:45:38;;;;;;;;;;;;;;;;;;5057617;28;19912;-57
2021/05/08 08:48:04;;;;;;;;;;;;;;;;;;5073607;28;19999;-59
2021/05/08 08:50:30;;;;;;;;;;;;;;;;;;5074639;28;20437;-59
2021/05/08 08:52:55;;;;;;;;;;;;;;;;;;5074516;28;19909;-57
2021/05/08 08:55:20;;;;;;;;;;;;;;;;;;5073064;28;19916;-59
2021/05/08 08:57:48;;;;;;;;;;;;;;;;;;5073898;28;19920;-58
2021/05/08 09:00:14;;;;;;;;;;;;;;;;;;5072741;28;19916;-59
2021/05/08 09:02:39;;;;;;;;;;;;;;;;;;5073563;28;19919;-59
2021/05/08 09:05:04;;;;;;;;;;;;;;;;;;5072037;28;20349;-59
2021/05/08 09:07:30;;;;;;;;;;;;;;;;;;5073952;28;19923;-58
2021/05/08 09:09:55;;;;;;;;;;;;;;;;;;5055879;28;19970;-56
2021/05/08 09:12:25;;;;;;;;;;;;;;;;;;5071588;28;19913;-57
2021/05/08 09:14:51;;;;;;;;;;;;;;;;;;5072537;28;19922;-58
2021/05/08 09:17:16;;;;;;;;;;;;;;;;;;5071969;28;19916;-58
2021/05/08 09:19:41;;;;;;;;;;;;;;;;;;5072761;28;19916;-58
2021/05/08 09:22:06;;;;;;;;;;;;;;;;;;5072920;28;20238;-56
2021/05/08 09:24:32;;;;;;;;;;;;;;;;;;5072802;28;20441;-56
2021/05/08 09:27:00;;;;;;;;;;;;;;;;;;5073167;28;19934;-56
2021/05/08 09:29:25;;;;;;;;;;;;;;;;;;5071299;28;19912;-58
2021/05/08 09:31:51;;;;;;;;;;;;;;;;;;5071521;28;20381;-56
2021/05/08 09:34:16;;;;;;;;;;;;;;;;;;5072878;28;19999;-57
2021/05/08 09:36:41;;;;;;;;;;;;;;;;;;5072597;28;19917;-56
2021/05/08 09:39:06;;;;;;;;;;;;;;;;;;5071466;28;19932;-55
2021/05/08 09:41:32;;;;;;;;;;;;;;;;;;5072637;28;19917;-57
2021/05/08 09:43:57;;;;;;;;;;;;;;;;;;5054770;28;19960;-58
2021/05/08 09:46:22;;;;;;;;;;;;;;;;;;5071028;28;20426;-57
2021/05/08 09:48:47;;;;;;;;;;;;;;;;;;5072793;28;19909;-57
2021/05/08 09:51:13;;;;;;;;;;;;;;;;;;5071113;28;20346;-58
2021/05/08 09:53:38;;;;;;;;;;;;;;;;;;5070957;28;19928;-55
2021/05/08 09:56:03;;;;;;;;;;;;;;;;;;5070651;28;19939;-56
2021/05/08 09:58:28;;;;;;;;;;;;;;;;;;5070049;28;19927;-56
2021/05/08 10:00:53;;;;;;;;;;;;;;;;;;5071818;28;19947;-59
2021/05/08 10:03:19;;;;;;;;;;;;;;;;;;5072537;28;19919;-56
2021/05/08 10:05:44;;;;;;;;;;;;;;;;;;5056442;28;19999;-56
2021/05/08 10:08:10;;;;;;;;;;;;;;;;;;5070603;28;20360;-59
2021/05/08 10:10:35;;;;;;;;;;;;;;;;;;5070866;28;19958;-58
2021/05/08 10:13:01;;;;;;;;;;;;;;;;;;5070997;28;20253;-58
2021/05/08 10:15:26;;;;;;;;;;;;;;;;;;5069542;28;20324;-57
2021/05/08 10:17:51;;;;;;;;;;;;;;;;;;5069722;28;19962;-59
2021/05/08 10:20:17;;;;;;;;;;;;;;;;;;5071018;28;19916;-57
2021/05/08 10:22:42;;;;;;;;;;;;;;;;;;5061781;28;20308;-57
2021/05/08 10:25:07;;;;;;;;;;;;;;;;;;5070335;28;20003;-57
2021/05/08 10:27:32;;;;;;;;;;;;;;;;;;5070352;28;19974;-57
2021/05/08 10:29:58;;;;;;;;;;;;;;;;;;5070995;28;19917;-56
2021/05/08 10:32:23;;;;;;;;;;;;;;;;;;5072192;28;19918;-56
2021/05/08 10:34:49;;;;;;;;;;;;;;;;;;5072420;28;20268;-56
2021/05/08 10:37:14;;;;;;;;;;;;;;;;;;5071550;28;20298;-58
2021/05/08 10:39:40;;;;;;;;;;;;;;;;;;5072252;28;20058;-55
2021/05/08 10:42:05;;;;;;;;;;;;;;;;;;5072944;28;19913;-57
2021/05/08 10:44:30;;;;;;;;;;;;;;;;;;5074675;28;19919;-56
2021/05/08 10:46:55;;;;;;;;;;;;;;;;;;5076134;28;19919;-56
2021/05/08 10:49:21;;;;;;;;;;;;;;;;;;5074434;28;19931;-58
2021/05/08 10:51:46;;;;;;;;;;;;;;;;;;5075807;28;20330;-58
2021/05/08 10:54:11;;;;;;;;;;;;;;;;;;5056630;28;20233;-57
2021/05/08 10:56:36;;;;;;;;;;;;;;;;;;5054929;28;20335;-58
2021/05/08 10:59:02;;;;;;;;;;;;;;;;;;5074894;28;19913;-57
2021/05/08 11:01:27;;;;;;;;;;;;;;;;;;5075108;28;19920;-58
2021/05/08 11:03:52;;;;;;;;;;;;;;;;;;5072220;28;19923;-58
2021/05/08 11:06:17;;;;;;;;;;;;;;;;;;5074871;28;19912;-57
2021/05/08 11:08:43;;;;;;;;;;;;;;;;;;5078525;28;19974;-56
2021/05/08 11:11:08;;;;;;;;;;;;;;;;;;5075005;28;20368;-53
2021/05/08 11:13:33;;;;;;;;;;;;;;;;;;5074686;28;20376;-56
2021/05/08 11:16:03;;;;;;;;;;;;;;;;;;5074996;28;19924;-57
2021/05/08 11:18:29;;;;;;;;;;;;;;;;;;5076377;28;20011;-57
2021/05/08 11:20:54;;;;;;;;;;;;;;;;;;5073826;28;20397;-56
2021/05/08 11:23:20;;;;;;;;;;;;;;;;;;5075264;28;20373;-56
2021/05/08 11:25:45;;;;;;;;;;;;;;;;;;5075871;28;19916;-58
2021/05/08 11:28:10;;;;;;;;;;;;;;;;;;5075917;28;19913;-58
2021/05/08 11:30:35;;;;;;;;;;;;;;;;;;5074375;28;19944;-57
2021/05/08 11:33:01;;;;;;;;;;;;;;;;;;5076831;28;19912;-57
2021/05/08 11:35:26;;;;;;;;;;;;;;;;;;5076473;28;19965;-59
2021/05/08 11:37:51;;;;;;;;;;;;;;;;;;5075246;28;19981;-57
2021/05/08 11:40:16;;;;;;;;;;;;;;;;;;5084600;28;19917;-58
2021/05/08 11:42:41;;;;;;;;;;;;;;;;;;5078240;28;19985;-56
2021/05/08 11:45:10;;;;;;;;;;;;;;;;;;5076220;28;19919;-56
2021/05/08 11:47:36;;;;;;;;;;;;;;;;;;5074340;28;20375;-55
2021/05/08 11:50:01;;;;;;;;;;;;;;;;;;5074561;28;19913;-56
2021/05/08 11:52:27;;;;;;;;;;;;;;;;;;5075049;28;19916;-56
2021/05/08 11:54:52;;;;;;;;;;;;;;;;;;5073469;28;19912;-56
2021/05/08 11:57:18;;;;;;;;;;;;;;;;;;5074161;28;19920;-57
2021/05/08 11:59:44;;;;;;;;;;;;;;;;;;5075546;28;19920;-56
2021/05/08 12:02:09;;;;;;;;;;;;;;;;;;5078667;28;19912;-57
2021/05/08 12:04:34;;;;;;;;;;;;;;;;;;5081051;28;19912;-57
2021/05/08 12:06:59;;;;;;;;;;;;;;;;;;5077725;28;19958;-54
2021/05/08 12:09:24;;;;;;;;;;;;;;;;;;5075733;28;19913;-55
2021/05/08 12:11:50;;;;;;;;;;;;;;;;;;5074195;28;20021;-58
2021/05/08 12:14:15;;;;;;;;;;;;;;;;;;5074559;28;20284;-55
2021/05/08 12:16:40;;;;;;;;;;;;;;;;;;5075816;28;19974;-59
2021/05/08 12:19:06;;;;;;;;;;;;;;;;;;5075969;28;19916;-57
2021/05/08 12:21:31;;;;;;;;;;;;;;;;;;5074838;28;19916;-56
2021/05/08 12:23:56;;;;;;;;;;;;;;;;;;5075543;28;19913;-59
2021/05/08 12:26:21;;;;;;;;;;;;;;;;;;5075928;28;20003;-62
2021/05/08 12:28:47;;;;;;;;;;;;;;;;;;5076967;28;19951;-58
2021/05/08 12:31:12;;;;;;;;;;;;;;;;;;5074029;28;19923;-58
2021/05/08 12:33:38;;;;;;;;;;;;;;;;;;5074707;28;19966;-60
2021/05/08 12:36:03;;;;;;;;;;;;;;;;;;5061417;28;20360;-57
2021/05/08 12:38:28;;;;;;;;;;;;;;;;;;5074234;28;19928;-56
2021/05/08 12:40:53;;;;;;;;;;;;;;;;;;5079294;28;19951;-61
2021/05/08 12:43:19;;;;;;;;;;;;;;;;;;5076276;28;20011;-55
2021/05/08 12:45:44;;;;;;;;;;;;;;;;;;5077056;28;19912;-58
2021/05/08 12:48:09;;;;;;;;;;;;;;;;;;5077214;28;19912;-56
2021/05/08 12:50:34;;;;;;;;;;;;;;;;;;5075523;28;19913;-56
2021/05/08 12:52:59;;;;;;;;;;;;;;;;;;5077143;28;19912;-57
2021/05/08 12:55:25;;;;;;;;;;;;;;;;;;5077327;28;19908;-57
2021/05/08 12:57:50;;;;;;;;;;;;;;;;;;5077577;28;19927;-55
2021/05/08 13:00:17;;;;;;;;;;;;;;;;;;5076004;28;19920;-55
2021/05/08 13:02:43;;;;;;;;;;;;;;;;;;5075406;28;19917;-54
2021/05/08 13:05:09;;;;;;;;;;;;;;;;;;5076405;28;19918;-57
2021/05/08 13:07:35;;;;;;;;;;;;;;;;;;5075127;28;19948;-55
2021/05/08 13:10:01;;;;;;;;;;;;;;;;;;5076636;28;19919;-58
2021/05/08 13:12:26;;;;;;;;;;;;;;;;;;5075134;28;19913;-57
2021/05/08 13:14:51;;;;;;;;;;;;;;;;;;5074269;28;19909;-61
2021/05/08 13:17:17;;;;;;;;;;;;;;;;;;5076755;28;19921;-61
2021/05/08 13:19:42;;;;;;;;;;;;;;;;;;5074702;28;20325;-56
2021/05/08 13:22:08;;;;;;;;;;;;;;;;;;5075513;28;19913;-53
2021/05/08 13:24:33;;;;;;;;;;;;;;;;;;5073753;28;19970;-55
2021/05/08 13:26:58;;;;;;;;;;;;;;;;;;5076196;28;19974;-59
2021/05/08 13:29:23;;;;;;;;;;;;;;;;;;5077871;28;19970;-54
2021/05/08 13:31:49;;;;;;;;;;;;;;;;;;5074745;28;20378;-57
2021/05/08 13:34:14;;;;;;;;;;;;;;;;;;5075915;28;20318;-56
2021/05/08 13:36:39;;;;;;;;;;;;;;;;;;5074484;28;20261;-61
2021/05/08 13:39:06;;;;;;;;;;;;;;;;;;5075089;28;19916;-57
2021/05/08 13:41:33;;;;;;;;;;;;;;;;;;5076937;28;19924;-56
2021/05/08 13:43:58;;;;;;;;;;;;;;;;;;5079299;28;19919;-55
2021/05/08 13:46:23;;;;;;;;;;;;;;;;;;5088406;28;20344;-55
2021/05/08 13:48:48;;;;;;;;;;;;;;;;;;5086899;28;19920;-56
2021/05/08 13:51:14;;;;;;;;;;;;;;;;;;5083279;28;20303;-53
2021/05/08 13:53:39;;;;;;;;;;;;;;;;;;5085020;28;20383;-53
2021/05/08 13:56:04;;;;;;;;;;;;;;;;;;5081478;28;19959;-57
2021/05/08 13:58:29;;;;;;;;;;;;;;;;;;5065057;28;19971;-56
2021/05/08 14:00:55;;;;;;;;;;;;;;;;;;5086565;28;19920;-55
2021/05/08 14:03:20;;;;;;;;;;;;;;;;;;5087732;28;19912;-56
2021/05/08 14:05:45;;;;;;;;;;;;;;;;;;5083435;28;19908;-62
2021/05/08 14:08:11;;;;;;;;;;;;;;;;;;5083965;28;19912;-53
2021/05/08 14:10:37;;;;;;;;;;;;;;;;;;5086033;28;19919;-54
2021/05/08 14:13:02;;;;;;;;;;;;;;;;;;5083736;28;19917;-54
2021/05/08 14:15:27;;;;;;;;;;;;;;;;;;5081248;28;19977;-56
2021/05/08 14:17:52;;;;;;;;;;;;;;;;;;5081373;28;19963;-55
2021/05/08 14:20:18;;;;;;;;;;;;;;;;;;5084917;28;20371;-57
2021/05/08 14:22:43;;;;;;;;;;;;;;;;;;5084035;28;19920;-58
2021/05/08 14:25:08;;;;;;;;;;;;;;;;;;5083057;28;19916;-59
2021/05/08 14:27:33;;;;;;;;;;;;;;;;;;5080360;28;19912;-55
2021/05/08 14:29:59;;;;;;;;;;;;;;;;;;5082399;28;19951;-57
2021/05/08 14:32:24;;;;;;;;;;;;;;;;;;5080970;28;19920;-55
2021/05/08 14:34:50;;;;;;;;;;;;;;;;;;5081488;28;19916;-58
2021/05/08 14:37:15;;;;;;;;;;;;;;;;;;5083636;28;19916;-55
2021/05/08 14:39:40;;;;;;;;;;;;;;;;;;5083661;28;19916;-58
2021/05/08 14:42:05;;;;;;;;;;;;;;;;;;5087216;28;19948;-56
2021/05/08 14:44:31;;;;;;;;;;;;;;;;;;5082607;28;19948;-56
2021/05/08 14:46:56;;;;;;;;;;;;;;;;;;5076422;28;19913;-58
2021/05/08 14:49:21;;;;;;;;;;;;;;;;;;5080288;28;19912;-60
2021/05/08 14:51:46;;;;;;;;;;;;;;;;;;5079043;28;19961;-57
2021/05/08 14:54:12;;;;;;;;;;;;;;;;;;5076953;28;19939;-56
2021/05/08 14:56:37;;;;;;;;;;;;;;;;;;5079962;28;19991;-57
2021/05/08 14:59:02;;;;;;;;;;;;;;;;;;5081541;28;19982;-58
2021/05/08 15:01:27;;;;;;;;;;;;;;;;;;5083898;28;19913;-58
2021/05/08 15:03:52;;;;;;;;;;;;;;;;;;5080150;28;19916;-59
2021/05/08 15:06:18;;;;;;;;;;;;;;;;;;5083563;28;19975;-58
2021/05/08 15:08:43;;;;;;;;;;;;;;;;;;5082878;28;19960;-57
2021/05/08 15:11:08;;;;;;;;;;;;;;;;;;5085340;28;19908;-59
2021/05/08 15:13:33;;;;;;;;;;;;;;;;;;5086908;28;19920;-59
2021/05/08 15:15:59;;;;;;;;;;;;;;;;;;5088595;28;19942;-58
2021/05/08 15:18:25;;;;;;;;;;;;;;;;;;5088191;28;19963;-61
2021/05/08 15:20:50;;;;;;;;;;;;;;;;;;5085919;28;20022;-59
2021/05/08 15:23:15;;;;;;;;;;;;;;;;;;5085138;28;19928;-58
2021/05/08 15:25:41;;;;;;;;;;;;;;;;;;5087226;28;19923;-57
2021/05/08 15:28:06;;;;;;;;;;;;;;;;;;5087887;28;20280;-58
2021/05/08 15:30:31;;;;;;;;;;;;;;;;;;5086576;28;20387;-57
2021/05/08 15:32:56;;;;;;;;;;;;;;;;;;5084004;28;20372;-56
2021/05/08 15:35:22;;;;;;;;;;;;;;;;;;5074987;28;19913;-58
2021/05/08 15:37:47;;;;;;;;;;;;;;;;;;5081540;28;19927;-59
2021/05/08 15:40:12;;;;;;;;;;;;;;;;;;5086638;28;19916;-58
2021/05/08 15:42:37;;;;;;;;;;;;;;;;;;5085900;28;20067;-60
2021/05/08 15:45:03;;;;;;;;;;;;;;;;;;5086145;28;19916;-59
2021/05/08 15:47:28;;;;;;;;;;;;;;;;;;5098517;28;19916;-58
2021/05/08 15:49:53;;;;;;;;;;;;;;;;;;5095967;28;19916;-59
2021/05/08 15:52:18;;;;;;;;;;;;;;;;;;5084457;28;19919;-59
2021/05/08 15:54:44;;;;;;;;;;;;;;;;;;5085998;28;19913;-58
2021/05/08 15:57:09;;;;;;;;;;;;;;;;;;5087076;28;19920;-59
2021/05/08 15:59:34;;;;;;;;;;;;;;;;;;5077121;28;19936;-57
2021/05/08 16:01:59;;;;;;;;;;;;;;;;;;5076249;28;19913;-58
2021/05/08 16:04:25;;;;;;;;;;;;;;;;;;5076040;28;19919;-58
2021/05/08 16:06:50;;;;;;;;;;;;;;;;;;5077372;28;20276;-60
2021/05/08 16:09:15;;;;;;;;;;;;;;;;;;5079664;28;20294;-60
2021/05/08 16:11:40;;;;;;;;;;;;;;;;;;5077875;28;20364;-59
2021/05/08 16:14:05;;;;;;;;;;;;;;;;;;5080180;28;19908;-59
2021/05/08 16:16:32;;;;;;;;;;;;;;;;;;5081112;28;19920;-58
2021/05/08 16:18:57;;;;;;;;;;;;;;;;;;5081544;28;20015;-58
2021/05/08 16:21:23;;;;;;;;;;;;;;;;;;5081584;28;19916;-59
2021/05/08 16:23:48;;;;;;;;;;;;;;;;;;5082223;28;19912;-55
2021/05/08 16:26:13;;;;;;;;;;;;;;;;;;5080194;28;19969;-59
2021/05/08 16:28:38;;;;;;;;;;;;;;;;;;5082712;28;19913;-59
2021/05/08 16:31:04;;;;;;;;;;;;;;;;;;5081928;28;20019;-58
2021/05/08 16:33:29;;;;;;;;;;;;;;;;;;5080887;28;19919;-59